Bookmark and Share
Track history (hours):
 

Sea Pearl

Last reported at 2014-Apr-17 17:16 UTC. Time now 2014-Apr-18 03:02 UTC.
Position N 34°54' W 121°38'.

Length 183 m; draft 11.3 m.

Type: Cargo ship. MMSI: 538002888.

NotesDate/timePositionNaut miles runAvg speedWind from/ knotsBaromVisibWave heightAir tempDewpointWater temp
2014-Apr-17 17:16N 34°54' W 121°38'810.5
2014-Apr-17 16:28N 35°02' W 121°43'1010.6
2014-Apr-17 15:33N 35°10' W 121°49'1010.4
2014-Apr-17 14:33N 35°19' W 121°56'1110.6
2014-Apr-17 13:33N 35°29' W 122°01'1111.0
2014-Apr-17 12:33N 35°39' W 122°06'1110.9
2014-Apr-17 11:33N 35°49' W 122°13'1110.7
2014-Apr-17 10:33N 35°58' W 122°19'1110.5
2014-Apr-17 09:33N 36°07' W 122°25'1010.4
2014-Apr-17 08:33N 36°17' W 122°30'1010.5
2014-Apr-17 07:33N 36°26' W 122°36'1110.5
2014-Apr-17 06:33N 36°36' W 122°41'1010.5
2014-Apr-17 05:33N 36°45' W 122°47'1010.4
2014-Apr-17 04:33N 36°55' W 122°52'1110.5
2014-Apr-17 03:30N 37°04' W 122°58'1110.5
2014-Apr-17 02:27N 37°15' W 123°02'1010.7
2014-Apr-17 01:33N 37°25' W 123°04'9 9.3
2014-Apr-17 00:33N 37°34' W 123°04'9 9.4
2014-Apr-16 23:33N 37°39' W 122°54'10 9.5
2014-Apr-16 22:33N 37°44' W 122°44'9 8.7
2014-Apr-16 21:33N 37°47' W 122°33'8 8.1
2014-Apr-16 20:33N 37°49' W 122°23'4 3.4
2014-Apr-16 19:31N 37°46' W 122°21'0 0.0
2014-Apr-16 18:31N 37°46' W 122°21'0 0.1
2014-Apr-16 17:31N 37°46' W 122°21'0 0.1
2014-Apr-16 16:31N 37°46' W 122°22'0 0.2
2014-Apr-16 15:31N 37°46' W 122°22'0 0.1
2014-Apr-16 14:31N 37°46' W 122°22'0 0.0
2014-Apr-16 13:31N 37°46' W 122°22'0 0.0
2014-Apr-16 12:31N 37°46' W 122°22'0 0.0
2014-Apr-16 11:31N 37°46' W 122°22'0 0.0
2014-Apr-16 10:34N 37°46' W 122°22'4 3.8
2014-Apr-16 09:34N 37°50' W 122°24'5 4.7
2014-Apr-16 08:34N 37°54' W 122°23'1 1.4
2014-Apr-16 07:33N 37°55' W 122°22'0 0.0
2014-Apr-16 06:33N 37°55' W 122°22'0 0.0
2014-Apr-16 05:33N 37°55' W 122°22'0 0.0
2014-Apr-16 04:33N 37°55' W 122°22'0 0.0
2014-Apr-16 03:33N 37°55' W 122°22'0 0.0
2014-Apr-16 02:33N 37°55' W 122°22'0 0.0
2014-Apr-16 01:33N 37°55' W 122°22'0 0.0
2014-Apr-16 00:33N 37°55' W 122°22'0 0.0
2014-Apr-15 23:33N 37°55' W 122°22'0 0.0
2014-Apr-15 22:33N 37°55' W 122°22'0 0.0
2014-Apr-15 21:33N 37°55' W 122°22'0 0.0
2014-Apr-15 20:30N 37°55' W 122°22'0 0.0
2014-Apr-15 19:33N 37°55' W 122°22'0 0.0
2014-Apr-15 18:33N 37°55' W 122°22'0 0.0
2014-Apr-15 17:33N 37°55' W 122°22'0 0.0
2014-Apr-15 16:33N 37°55' W 122°22'0 0.0
2014-Apr-15 15:30N 37°55' W 122°22'0 0.0
2014-Apr-15 14:33N 37°55' W 122°22'0 0.0
2014-Apr-15 12:34N 37°55' W 122°22'0 0.0
2014-Apr-15 11:34N 37°55' W 122°22'0 0.0
2014-Apr-15 10:34N 37°55' W 122°22'0 0.0
2014-Apr-15 09:31N 37°55' W 122°22'0 0.0
2014-Apr-15 08:34N 37°55' W 122°22'0 0.0
2014-Apr-15 07:34N 37°55' W 122°22'0 0.0
2014-Apr-15 06:31N 37°55' W 122°22'0 0.0
2014-Apr-15 05:34N 37°55' W 122°22'0 0.0
2014-Apr-15 03:31N 37°55' W 122°22'0 0.0
2014-Apr-15 02:31N 37°55' W 122°22'0 0.0
2014-Apr-15 01:30N 37°55' W 122°22'0 0.0
2014-Apr-15 00:33N 37°55' W 122°22'0 0.0
2014-Apr-14 23:33N 37°55' W 122°22'0 0.0
2014-Apr-14 22:33N 37°55' W 122°22'0 0.0
2014-Apr-14 21:30N 37°55' W 122°22'0 0.0
2014-Apr-14 20:33N 37°55' W 122°22'0 0.0
2014-Apr-14 19:33N 37°55' W 122°22'0 0.0
2014-Apr-14 18:33N 37°55' W 122°22'0 0.0
2014-Apr-14 17:30N 37°55' W 122°22'0 0.0
2014-Apr-14 16:30N 37°55' W 122°22'0 0.0
2014-Apr-14 15:30N 37°55' W 122°22'0 0.0
2014-Apr-14 14:33N 37°55' W 122°22'0 0.0
2014-Apr-14 13:33N 37°55' W 122°22'0 0.0
2014-Apr-14 10:30N 37°55' W 122°22'0 0.0
2014-Apr-14 09:30N 37°55' W 122°22'0 0.0
2014-Apr-14 08:30N 37°55' W 122°22'0 0.0
2014-Apr-14 07:33N 37°55' W 122°22'0 0.0
2014-Apr-14 06:30N 37°55' W 122°22'0 0.0
2014-Apr-13 22:30N 37°55' W 122°22'0 0.0
2014-Apr-13 21:33N 37°55' W 122°22'0 0.0
2014-Apr-13 20:33N 37°55' W 122°22'0 0.0
2014-Apr-13 19:33N 37°55' W 122°22'0 0.0
2014-Apr-13 18:33N 37°55' W 122°22'0 0.0
2014-Apr-13 17:33N 37°55' W 122°22'0 0.0
2014-Apr-13 16:30N 37°55' W 122°22'0 0.0
2014-Apr-13 15:30N 37°55' W 122°22'0 0.0
2014-Apr-13 14:30N 37°55' W 122°22'0 0.1
2014-Apr-13 13:33N 37°55' W 122°22'3 2.6
2014-Apr-13 12:33N 37°55' W 122°25'8 8.3
2014-Apr-13 11:34N 37°48' W 122°22'0 0.1
2014-Apr-13 10:32N 37°48' W 122°22'0 0.0
2014-Apr-13 09:32N 37°48' W 122°21'1 1.1
2014-Apr-13 08:33N 37°47' W 122°22'1111.5
2014-Apr-13 07:33N 37°36' W 122°17'7 6.6
2014-Apr-13 06:33N 37°31' W 122°13'0 0.2
2014-Apr-13 05:31N 37°31' W 122°13'0 0.0
2014-Apr-13 04:31N 37°31' W 122°13'0 0.0
2014-Apr-13 03:31N 37°31' W 122°13'0 0.0
2014-Apr-13 02:31N 37°31' W 122°13'0 0.0
2014-Apr-13 01:31N 37°31' W 122°13'0 0.0
2014-Apr-13 00:31N 37°31' W 122°13'0 0.0
2014-Apr-12 23:31N 37°31' W 122°13'0 0.0
2014-Apr-12 22:31N 37°31' W 122°13'0 0.0
2014-Apr-12 21:31N 37°31' W 122°13'0 0.0
2014-Apr-12 20:25N 37°31' W 122°13'0 0.0
2014-Apr-12 19:31N 37°31' W 122°13'0 0.0
2014-Apr-12 18:31N 37°31' W 122°13'0 0.0
2014-Apr-12 17:31N 37°31' W 122°13'0 0.0
2014-Apr-12 16:31N 37°31' W 122°13'0 0.0
2014-Apr-12 15:31N 37°31' W 122°13'0 0.0
2014-Apr-12 14:31N 37°31' W 122°13'0 0.0
2014-Apr-12 13:31N 37°31' W 122°13'0 0.0
2014-Apr-12 12:31N 37°31' W 122°13'0 0.0
2014-Apr-12 11:31N 37°31' W 122°13'0 0.0
2014-Apr-12 10:31N 37°31' W 122°13'0 0.0
2014-Apr-12 09:31N 37°31' W 122°13'0 0.0
2014-Apr-12 08:31N 37°31' W 122°13'0 0.0
2014-Apr-12 07:25N 37°31' W 122°13'0 0.0
2014-Apr-12 06:19N 37°31' W 122°13'0 0.0
2014-Apr-12 05:19N 37°31' W 122°13'0 0.0
2014-Apr-12 04:31N 37°31' W 122°13'0 0.0
2014-Apr-12 03:31N 37°31' W 122°13'0 0.0
2014-Apr-12 02:31N 37°31' W 122°13'0 0.0
2014-Apr-12 01:31N 37°31' W 122°13'0 0.0
2014-Apr-12 00:31N 37°31' W 122°13'0 0.0
2014-Apr-11 23:19N 37°31' W 122°13'0 0.0
2014-Apr-11 22:31N 37°31' W 122°13'0 0.0
2014-Apr-11 21:31N 37°31' W 122°13'0 0.0
2014-Apr-11 20:31N 37°31' W 122°13'0 0.0
2014-Apr-11 19:25N 37°31' W 122°13'0 0.0
2014-Apr-11 18:19N 37°31' W 122°13'0 0.0
2014-Apr-11 17:31N 37°31' W 122°13'0 0.0
2014-Apr-11 16:25N 37°31' W 122°13'0 0.0
2014-Apr-11 15:31N 37°31' W 122°13'0 0.0
2014-Apr-11 14:13N 37°31' W 122°13'0 0.0
2014-Apr-11 13:31N 37°31' W 122°13'0 0.0
2014-Apr-11 12:31N 37°31' W 122°13'0 0.0
2014-Apr-11 11:25N 37°31' W 122°13'0 0.0
2014-Apr-11 10:31N 37°31' W 122°13'0 0.0
2014-Apr-11 09:31N 37°31' W 122°13'0 0.0
2014-Apr-11 08:31N 37°31' W 122°13'0 0.0
2014-Apr-11 07:31N 37°31' W 122°13'0 0.0
2014-Apr-11 06:25N 37°31' W 122°13'0 0.0
2014-Apr-11 05:31N 37°31' W 122°13'0 0.0
2014-Apr-11 04:31N 37°31' W 122°13'0 0.0
2014-Apr-11 03:31N 37°31' W 122°13'0 0.0
2014-Apr-11 02:31N 37°31' W 122°13'0 0.0
2014-Apr-11 01:31N 37°31' W 122°13'0 0.0
2014-Apr-11 00:25N 37°31' W 122°13'0 0.0
2014-Apr-10 23:31N 37°31' W 122°13'0 0.0
2014-Apr-10 22:31N 37°31' W 122°13'0 0.0
2014-Apr-10 21:31N 37°31' W 122°13'0 0.0
2014-Apr-10 20:31N 37°31' W 122°13'0 0.0
2014-Apr-10 19:19N 37°31' W 122°13'0 0.0
2014-Apr-10 18:31N 37°31' W 122°13'0 0.0
2014-Apr-10 17:31N 37°31' W 122°13'0 0.0
2014-Apr-10 16:25N 37°31' W 122°13'0 0.0
2014-Apr-10 15:31N 37°31' W 122°13'0 0.0
2014-Apr-10 14:31N 37°31' W 122°13'0 0.0
2014-Apr-10 13:31N 37°31' W 122°13'0 0.0
2014-Apr-10 12:25N 37°31' W 122°13'0 0.0
2014-Apr-10 11:31N 37°31' W 122°13'0 0.0
2014-Apr-10 10:31N 37°31' W 122°13'0 0.0
2014-Apr-10 09:31N 37°31' W 122°13'0 0.0
2014-Apr-10 08:31N 37°31' W 122°13'0 0.0
2014-Apr-10 07:31N 37°31' W 122°13'0 0.0
2014-Apr-10 06:25N 37°31' W 122°13'0 0.0
2014-Apr-10 05:31N 37°31' W 122°13'0 0.0
2014-Apr-10 04:31N 37°31' W 122°13'0 0.0
2014-Apr-10 03:31N 37°31' W 122°13'0 0.0
2014-Apr-10 02:31N 37°31' W 122°13'0 0.0
2014-Apr-10 01:31N 37°31' W 122°13'0 0.0
2014-Apr-10 00:31N 37°31' W 122°13'0 0.0
2014-Apr-09 23:31N 37°31' W 122°13'0 0.0
2014-Apr-09 22:31N 37°31' W 122°13'0 0.0
2014-Apr-09 21:25N 37°31' W 122°13'0 0.0
2014-Apr-09 20:31N 37°31' W 122°13'0 0.0
2014-Apr-09 19:31N 37°31' W 122°13'0 0.0
2014-Apr-09 18:31N 37°31' W 122°13'0 0.0
2014-Apr-09 17:31N 37°31' W 122°13'0 0.0
2014-Apr-09 16:19N 37°31' W 122°13'0 0.0
2014-Apr-09 15:31N 37°31' W 122°13'0 0.0
2014-Apr-09 14:31N 37°31' W 122°13'0 0.0
2014-Apr-09 13:25N 37°31' W 122°13'0 0.0
2014-Apr-09 12:31N 37°31' W 122°13'0 0.0
2014-Apr-09 11:31N 37°31' W 122°13'0 0.0
2014-Apr-09 10:25N 37°31' W 122°13'0 0.0
2014-Apr-09 09:31N 37°31' W 122°13'0 0.0
2014-Apr-09 08:31N 37°31' W 122°13'0 0.0
2014-Apr-09 07:31N 37°31' W 122°13'0 0.0
2014-Apr-09 06:31N 37°31' W 122°13'0 0.0
2014-Apr-09 05:31N 37°31' W 122°13'0 0.0
2014-Apr-09 04:31N 37°31' W 122°13'0 0.0
2014-Apr-09 03:31N 37°31' W 122°13'0 0.0
2014-Apr-09 02:31N 37°31' W 122°13'0 0.0
2014-Apr-09 01:31N 37°31' W 122°13'0 0.0
2014-Apr-09 00:31N 37°31' W 122°13'0 0.0
2014-Apr-08 23:31N 37°31' W 122°13'0 0.0
2014-Apr-08 22:31N 37°31' W 122°13'0 0.0
2014-Apr-08 21:25N 37°31' W 122°13'0 0.0
2014-Apr-08 20:31N 37°31' W 122°13'0 0.0
2014-Apr-08 19:31N 37°31' W 122°13'0 0.0
2014-Apr-08 18:31N 37°31' W 122°13'0 0.0
2014-Apr-08 17:31N 37°31' W 122°13'0 0.0
2014-Apr-08 16:31N 37°31' W 122°13'0 0.0
2014-Apr-08 15:31N 37°31' W 122°13'0 0.0
2014-Apr-08 14:31N 37°31' W 122°13'0 0.0
2014-Apr-08 13:31N 37°31' W 122°13'0 0.0
2014-Apr-08 12:31N 37°31' W 122°13'0 0.0
2014-Apr-08 11:31N 37°31' W 122°13'0 0.0
2014-Apr-08 10:31N 37°31' W 122°13'0 0.0
2014-Apr-08 09:25N 37°31' W 122°13'0 0.0
2014-Apr-08 08:31N 37°31' W 122°13'0 0.0
2014-Apr-08 07:31N 37°31' W 122°13'0 0.0
2014-Apr-08 06:31N 37°31' W 122°13'0 0.0
2014-Apr-08 05:31N 37°31' W 122°13'0 0.0
2014-Apr-08 04:31N 37°31' W 122°13'0 0.0
2014-Apr-08 03:25N 37°31' W 122°13'0 0.0
2014-Apr-08 02:31N 37°31' W 122°13'0 0.0
2014-Apr-08 01:31N 37°31' W 122°13'0 0.0
2014-Apr-08 00:31N 37°31' W 122°13'0 0.0
2014-Apr-07 23:31N 37°31' W 122°13'0 0.0
2014-Apr-07 22:31N 37°31' W 122°13'0 0.0
2014-Apr-07 21:25N 37°31' W 122°13'0 0.0
2014-Apr-07 20:31N 37°31' W 122°13'0 0.0
2014-Apr-07 19:31N 37°31' W 122°13'0 0.0
2014-Apr-07 17:31N 37°31' W 122°13'  

Dump ship's entire track history

sailing weather and tide predictions

Sea Pearl — V7MQ8 — position and weather